Time;durP1;ratioP1;P1;durP2;ratioP2;P2;SDS_P1;SDS_P2;PMS_P1;PMS_P2;Temp;Humidity;BMP_temperature;BMP_pressure;BME280_temperature;BME280_humidity;BME280_pressure;Samples;Min_cycle;Max_cycle;Signal;HPM_P1;HPM_P2
2021/06/29 00:02:15;;;;;;;4.30;3.45;;;26.70;55.80;;;;;;5013992;28;20030;-60
2021/06/29 00:04:41;;;;;;;4.15;3.75;;;26.70;55.80;;;;;;5031551;28;20021;-56
2021/06/29 00:07:07;;;;;;;3.58;3.17;;;26.70;55.80;;;;;;5021554;28;20453;-58
2021/06/29 00:09:33;;;;;;;4.07;3.60;;;26.70;55.80;;;;;;5028145;28;20353;-55
2021/06/29 00:11:59;;;;;;;4.45;4.05;;;26.70;55.90;;;;;;5026062;28;20132;-58
2021/06/29 00:14:26;;;;;;;3.45;3.15;;;26.70;55.90;;;;;;5026410;28;20112;-59
2021/06/29 00:16:52;;;;;;;4.38;3.35;;;26.70;55.90;;;;;;5025099;28;20049;-58
2021/06/29 00:19:19;;;;;;;3.50;3.20;;;26.70;55.90;;;;;;5029216;28;20026;-59
2021/06/29 00:21:46;;;;;;;3.90;3.60;;;26.70;55.90;;;;;;5024329;28;20037;-59
2021/06/29 00:24:12;;;;;;;3.63;3.20;;;26.70;55.90;;;;;;5025275;28;20061;-57
2021/06/29 00:26:38;;;;;;;3.83;3.50;;;26.70;56.00;;;;;;5027679;28;20409;-60
2021/06/29 00:29:04;;;;;;;3.47;3.17;;;26.70;56.00;;;;;;5017084;28;20034;-56
2021/06/29 00:31:30;;;;;;;3.40;3.10;;;26.70;56.00;;;;;;5020859;28;20124;-59
2021/06/29 00:33:55;;;;;;;4.00;3.60;;;26.70;56.00;;;;;;5025403;28;20037;-60
2021/06/29 00:36:21;;;;;;;3.95;3.55;;;26.70;56.00;;;;;;5030404;28;20386;-59
2021/06/29 00:38:47;;;;;;;3.72;3.25;;;26.70;56.00;;;;;;5024799;28;20030;-57
2021/06/29 00:41:13;;;;;;;3.90;3.50;;;26.70;56.10;;;;;;5020304;28;20025;-57
2021/06/29 00:43:45;;;;;;;3.40;3.10;;;26.60;56.00;;;;;;5015493;28;20341;-59
2021/06/29 00:46:11;;;;;;;3.63;3.33;;;26.70;56.10;;;;;;5022515;28;20025;-58
2021/06/29 00:48:37;;;;;;;4.00;3.60;;;26.70;56.10;;;;;;5021802;28;20108;-58
2021/06/29 00:51:03;;;;;;;3.50;3.20;;;26.60;56.00;;;;;;5017199;28;20053;-60
2021/06/29 00:53:28;;;;;;;3.47;3.17;;;26.70;56.10;;;;;;5024196;28;20052;-60
2021/06/29 00:55:54;;;;;;;3.42;3.13;;;26.60;56.10;;;;;;5015564;28;20449;-58
2021/06/29 00:58:20;;;;;;;3.80;3.38;;;26.60;56.10;;;;;;5015395;28;20129;-57
2021/06/29 01:00:46;;;;;;;3.40;3.10;;;26.60;56.10;;;;;;5034208;28;20083;-58
2021/06/29 01:03:12;;;;;;;4.57;3.38;;;26.60;56.10;;;;;;5035462;28;20033;-57
2021/06/29 01:05:38;;;;;;;3.70;3.40;;;26.60;56.10;;;;;;5018312;28;20034;-59
2021/06/29 01:08:04;;;;;;;3.53;3.22;;;26.60;56.10;;;;;;5021120;28;20026;-59
2021/06/29 01:10:30;;;;;;;3.90;3.20;;;26.60;56.10;;;;;;5029573;28;20025;-59
2021/06/29 01:12:56;;;;;;;2.90;2.70;;;26.60;56.10;;;;;;5035250;28;20317;-60
2021/06/29 01:15:23;;;;;;;3.42;3.13;;;26.60;56.10;;;;;;5034039;28;20037;-60
2021/06/29 01:17:53;;;;;;;3.65;2.88;;;26.60;56.10;;;;;;5035109;28;20038;-54
2021/06/29 01:20:29;;;;;;;5.93;3.13;;;26.60;56.10;;;;;;5022557;28;20099;-56
2021/06/29 01:22:59;;;;;;;3.28;2.97;;;26.60;56.10;;;;;;5035387;28;20055;-58
2021/06/29 01:25:28;;;;;;;2.90;2.63;;;26.50;56.10;;;;;;5021416;28;20041;-57
2021/06/29 01:32:48;;;;;;;3.05;2.72;;;26.50;56.20;;;;;;5021643;28;20045;-59
2021/06/29 01:35:14;;;;;;;3.25;2.90;;;26.50;56.20;;;;;;5034699;28;20037;-58
2021/06/29 01:37:40;;;;;;;2.90;2.40;;;26.50;56.20;;;;;;5027125;28;20026;-56
2021/06/29 01:42:33;;;;;;;3.10;2.80;;;26.50;56.30;;;;;;5032745;28;20425;-59
2021/06/29 01:44:59;;;;;;;3.15;2.45;;;26.50;56.30;;;;;;5034432;28;20087;-57
2021/06/29 01:47:37;;;;;;;3.65;2.95;;;26.50;56.30;;;;;;5032405;28;20033;-53
2021/06/29 01:50:10;;;;;;;3.35;2.58;;;26.50;56.30;;;;;;5034635;28;20044;-59
2021/06/29 01:52:37;;;;;;;3.33;2.92;;;26.50;56.30;;;;;;5028495;28;20037;-57
2021/06/29 01:55:05;;;;;;;2.85;2.65;;;26.40;56.30;;;;;;5017211;28;20088;-58
2021/06/29 01:57:30;;;;;;;3.30;2.70;;;26.50;56.40;;;;;;5025541;28;20112;-59
2021/06/29 01:59:56;;;;;;;4.03;2.97;;;26.40;56.40;;;;;;5015321;28;20117;-51
2021/06/29 02:02:22;;;;;;;3.22;2.92;;;26.40;56.40;;;;;;5016588;28;20037;-58
2021/06/29 02:04:48;;;;;;;3.42;3.13;;;26.50;56.40;;;;;;5015040;28;20041;-59
2021/06/29 02:07:14;;;;;;;3.47;3.08;;;26.50;56.50;;;;;;5022350;28;20358;-60
2021/06/29 02:09:39;;;;;;;3.70;3.17;;;26.50;56.50;;;;;;5034132;28;20094;-56
2021/06/29 02:12:06;;;;;;;3.17;2.85;;;26.50;56.50;;;;;;5032822;28;20087;-55
2021/06/29 02:14:32;;;;;;;4.50;3.42;;;26.50;56.50;;;;;;5031763;28;20125;-57
2021/06/29 02:16:59;;;;;;;2.92;2.67;;;26.40;56.40;;;;;;5032021;28;20349;-58
2021/06/29 02:19:25;;;;;;;3.88;3.40;;;26.50;56.50;;;;;;5031669;28;20029;-60
2021/06/29 02:21:50;;;;;;;4.30;3.50;;;26.40;56.50;;;;;;5021243;28;20049;-58
2021/06/29 02:24:16;;;;;;;4.07;3.60;;;26.40;56.50;;;;;;5014127;28;20049;-59
2021/06/29 02:26:42;;;;;;;3.97;3.20;;;26.40;56.50;;;;;;5022682;28;20095;-58
2021/06/29 02:29:08;;;;;;;3.38;3.08;;;26.40;56.50;;;;;;5014337;28;20048;-60
2021/06/29 02:31:34;;;;;;;3.40;2.83;;;26.40;56.50;;;;;;5025265;28;20440;-60
2021/06/29 02:33:59;;;;;;;3.67;3.30;;;26.40;56.50;;;;;;5020447;28;20049;-53
2021/06/29 02:36:25;;;;;;;2.90;2.63;;;26.40;56.50;;;;;;5033989;28;20033;-57
2021/06/29 02:38:51;;;;;;;2.92;2.63;;;26.40;56.60;;;;;;5029658;28;20030;-57
2021/06/29 02:41:17;;;;;;;3.15;2.83;;;26.40;56.60;;;;;;5014065;28;20034;-60
2021/06/29 02:43:43;;;;;;;3.25;2.95;;;26.40;56.60;;;;;;5016384;28;20037;-58
2021/06/29 02:46:09;;;;;;;2.70;2.50;;;26.40;56.60;;;;;;5021263;28;20034;-56
2021/06/29 02:48:34;;;;;;;3.03;2.70;;;26.40;56.60;;;;;;5024433;28;20033;-59
2021/06/29 02:51:00;;;;;;;2.60;2.40;;;26.40;56.60;;;;;;5032932;28;20109;-61
2021/06/29 02:53:26;;;;;;;2.95;2.75;;;26.40;56.60;;;;;;4994261;28;20034;-56
2021/06/29 02:55:52;;;;;;;2.78;2.58;;;26.40;56.60;;;;;;5023224;28;20056;-59
2021/06/29 02:58:18;;;;;;;2.85;2.65;;;26.40;56.60;;;;;;5027204;28;20446;-58
2021/06/29 03:00:44;;;;;;;3.08;2.78;;;26.40;56.60;;;;;;5018544;28;20041;-58
2021/06/29 03:03:09;;;;;;;2.97;2.70;;;26.40;56.70;;;;;;5029175;28;20040;-59
2021/06/29 03:05:35;;;;;;;3.15;2.85;;;26.30;56.60;;;;;;5033762;28;20492;-59
2021/06/29 03:08:01;;;;;;;2.70;2.50;;;26.40;56.70;;;;;;5020942;28;20030;-55
2021/06/29 03:10:27;;;;;;;3.28;2.97;;;26.40;56.70;;;;;;5013705;28;20049;-60
2021/06/29 03:12:53;;;;;;;3.08;2.78;;;26.40;56.70;;;;;;5021367;28;20037;-60
2021/06/29 03:15:18;;;;;;;3.10;2.83;;;26.40;56.70;;;;;;5033739;28;20044;-56
2021/06/29 03:17:44;;;;;;;2.85;2.65;;;26.40;56.70;;;;;;5032933;28;20086;-59
2021/06/29 03:20:12;;;;;;;3.05;2.85;;;26.30;56.60;;;;;;5031492;28;20033;-58
2021/06/29 03:22:39;;;;;;;2.90;2.70;;;26.30;56.60;;;;;;5018304;28;20404;-59
2021/06/29 03:25:06;;;;;;;2.92;2.72;;;26.30;56.60;;;;;;5033518;28;20033;-57
2021/06/29 03:27:31;;;;;;;3.28;2.95;;;26.30;56.60;;;;;;5028501;28;20409;-61
2021/06/29 03:29:57;;;;;;;3.13;2.83;;;26.30;56.70;;;;;;5017413;28;20076;-59
2021/06/29 03:32:23;;;;;;;3.35;3.05;;;26.30;56.70;;;;;;5018667;28;20361;-58
2021/06/29 03:34:49;;;;;;;3.50;3.20;;;26.30;56.70;;;;;;5036140;28;20369;-58
2021/06/29 03:37:15;;;;;;;3.17;2.88;;;26.30;56.70;;;;;;5016359;28;20103;-59
2021/06/29 03:39:40;;;;;;;2.90;2.63;;;26.40;56.80;;;;;;5016482;28;20034;-60
2021/06/29 03:42:07;;;;;;;3.28;2.97;;;26.30;56.80;;;;;;5018168;28;20057;-60
2021/06/29 03:44:32;;;;;;;2.78;2.58;;;26.30;56.80;;;;;;5017198;28;20030;-58
2021/06/29 03:46:58;;;;;;;3.20;2.72;;;26.30;56.80;;;;;;5017868;28;20115;-58
2021/06/29 03:49:24;;;;;;;2.90;2.70;;;26.30;56.80;;;;;;5017083;28;20114;-59
2021/06/29 03:51:52;;;;;;;2.95;2.75;;;26.30;56.80;;;;;;5022078;28;20389;-58
2021/06/29 03:54:18;;;;;;;3.25;2.95;;;26.30;56.90;;;;;;5036164;28;20414;-59
2021/06/29 03:56:44;;;;;;;3.00;2.70;;;26.30;56.90;;;;;;5035722;28;20029;-57
2021/06/29 03:59:10;;;;;;;2.95;2.70;;;26.30;57.00;;;;;;5031906;28;20156;-62
2021/06/29 04:01:37;;;;;;;2.97;2.78;;;26.30;57.00;;;;;;5017196;28;20441;-58
2021/06/29 04:04:04;;;;;;;2.90;2.70;;;26.30;57.00;;;;;;5016416;28;20030;-61
2021/06/29 04:06:35;;;;;;;2.80;2.60;;;26.30;57.10;;;;;;5033736;28;20167;-59
2021/06/29 04:09:02;;;;;;;3.05;2.75;;;26.30;57.10;;;;;;4997147;28;20411;-59
2021/06/29 04:11:28;;;;;;;3.10;2.83;;;26.30;57.20;;;;;;4996877;28;20040;-60
2021/06/29 04:13:55;;;;;;;3.22;2.92;;;26.30;57.20;;;;;;5033862;28;20095;-59
2021/06/29 04:16:22;;;;;;;2.85;2.65;;;26.30;57.20;;;;;;5036025;28;20473;-59
2021/06/29 04:18:47;;;;;;;3.00;2.78;;;26.30;57.20;;;;;;5025661;28;20341;-60
2021/06/29 04:21:14;;;;;;;3.83;3.10;;;26.30;57.20;;;;;;5025077;28;20117;-60
2021/06/29 04:23:44;;;;;;;2.85;2.65;;;26.30;57.30;;;;;;5031417;28;20076;-59
2021/06/29 04:26:12;;;;;;;3.30;3.00;;;26.30;57.30;;;;;;5022691;28;20042;-59
2021/06/29 04:28:38;;;;;;;3.17;2.88;;;26.30;57.30;;;;;;5015034;28;20030;-61
2021/06/29 04:31:04;;;;;;;2.97;2.70;;;26.30;57.30;;;;;;5015375;28;20082;-61
2021/06/29 04:33:30;;;;;;;3.60;3.30;;;26.30;57.30;;;;;;5030916;28;20042;-57
2021/06/29 04:35:55;;;;;;;3.30;3.00;;;26.30;57.50;;;;;;5032721;28;20022;-59
2021/06/29 04:38:21;;;;;;;3.00;2.80;;;26.30;57.30;;;;;;5035547;28;20388;-60
2021/06/29 04:40:47;;;;;;;3.15;2.92;;;26.20;57.30;;;;;;5026665;28;20040;-58
2021/06/29 04:43:13;;;;;;;3.45;3.10;;;26.20;57.40;;;;;;5016207;28;20438;-56
2021/06/29 04:45:38;;;;;;;3.45;3.15;;;26.30;57.50;;;;;;5022058;28;20441;-61
2021/06/29 04:48:05;;;;;;;3.63;3.33;;;26.30;57.50;;;;;;5027572;28;20030;-57
2021/06/29 04:50:31;;;;;;;3.70;3.40;;;26.30;57.50;;;;;;5021520;28;20037;-56
2021/06/29 04:52:56;;;;;;;3.42;3.13;;;26.20;57.50;;;;;;5033863;28;20053;-60
2021/06/29 04:55:22;;;;;;;3.70;3.40;;;26.30;57.60;;;;;;5031139;28;20350;-59
2021/06/29 04:57:48;;;;;;;4.05;3.65;;;26.30;57.60;;;;;;5015520;28;20080;-60
2021/06/29 05:00:17;;;;;;;3.72;3.42;;;26.30;57.60;;;;;;5028739;28;20040;-56
2021/06/29 05:02:44;;;;;;;3.60;3.30;;;26.20;57.60;;;;;;5035327;28;20037;-57
2021/06/29 05:05:10;;;;;;;3.67;3.38;;;26.20;57.60;;;;;;5026757;28;20041;-57
2021/06/29 05:07:37;;;;;;;4.07;3.72;;;26.20;57.70;;;;;;5015450;28;20040;-58
2021/06/29 05:10:05;;;;;;;3.78;3.47;;;26.20;57.70;;;;;;5028943;28;20474;-59
2021/06/29 05:12:31;;;;;;;3.38;3.08;;;26.20;57.70;;;;;;5035362;28;20045;-57
2021/06/29 05:14:57;;;;;;;3.60;3.30;;;26.20;57.80;;;;;;5025424;28;20044;-60
2021/06/29 05:17:22;;;;;;;3.63;3.33;;;26.20;57.80;;;;;;5030831;28;20067;-60
2021/06/29 05:19:48;;;;;;;4.00;3.70;;;26.20;57.80;;;;;;5033870;28;20045;-57
2021/06/29 05:22:14;;;;;;;4.13;3.40;;;26.20;57.80;;;;;;5031831;28;20025;-59
2021/06/29 05:24:40;;;;;;;3.50;3.20;;;26.20;57.80;;;;;;5019821;28;20400;-60
2021/06/29 05:27:06;;;;;;;3.65;3.35;;;26.20;58.50;;;;;;5033069;28;20132;-56
2021/06/29 05:29:32;;;;;;;3.50;3.08;;;26.20;57.90;;;;;;5034301;28;20037;-58
2021/06/29 05:31:57;;;;;;;3.80;3.50;;;26.20;57.90;;;;;;5032709;28;20044;-58
2021/06/29 05:34:23;;;;;;;3.72;3.42;;;26.20;57.90;;;;;;5034873;28;20475;-60
2021/06/29 05:36:49;;;;;;;4.03;3.72;;;26.20;57.90;;;;;;5033021;28;20133;-59
2021/06/29 05:39:17;;;;;;;4.07;3.72;;;26.20;57.90;;;;;;5021023;28;20037;-60
2021/06/29 05:41:43;;;;;;;4.10;3.78;;;26.20;57.90;;;;;;5017745;28;20034;-60
2021/06/29 05:44:09;;;;;;;3.78;3.47;;;26.20;58.00;;;;;;5034532;28;20048;-60
2021/06/29 05:46:35;;;;;;;3.80;3.50;;;26.20;58.00;;;;;;5027783;28;20025;-61
2021/06/29 05:49:03;;;;;;;3.92;3.58;;;26.30;58.10;;;;;;5030884;28;20330;-60
2021/06/29 05:51:29;;;;;;;3.63;3.33;;;26.20;58.00;;;;;;5033434;28;20133;-63
2021/06/29 05:53:55;;;;;;;3.75;3.45;;;26.20;58.00;;;;;;5034836;28;20172;-59
2021/06/29 05:56:21;;;;;;;3.63;3.10;;;26.30;58.10;;;;;;5033927;28;20037;-59
2021/06/29 05:58:47;;;;;;;3.45;3.10;;;26.30;58.10;;;;;;5034419;28;20437;-60
2021/06/29 06:01:12;;;;;;;3.45;3.15;;;26.30;58.10;;;;;;5022417;28;20053;-61
2021/06/29 06:03:38;;;;;;;3.50;3.20;;;26.30;58.10;;;;;;5014678;28;20065;-60
2021/06/29 06:06:04;;;;;;;3.53;3.22;;;26.30;58.10;;;;;;5014866;28;20080;-60
2021/06/29 06:08:30;;;;;;;3.45;3.15;;;26.20;58.00;;;;;;5022576;28;20063;-57
2021/06/29 06:10:56;;;;;;;3.65;3.35;;;26.30;58.00;;;;;;5033192;28;20065;-60
2021/06/29 06:13:22;;;;;;;3.25;2.95;;;26.20;58.00;;;;;;5034262;28;20068;-61
2021/06/29 06:15:49;;;;;;;3.20;2.90;;;26.30;58.00;;;;;;5024206;28;20033;-56
2021/06/29 06:18:15;;;;;;;3.30;3.00;;;26.20;58.00;;;;;;5014636;28;20044;-59
2021/06/29 06:20:41;;;;;;;3.30;3.00;;;26.20;58.00;;;;;;5023718;28;20021;-57
2021/06/29 06:23:07;;;;;;;3.97;3.58;;;26.30;58.10;;;;;;5034150;28;20033;-57
2021/06/29 06:25:34;;;;;;;3.33;3.03;;;26.30;58.10;;;;;;5025343;28;20026;-59
2021/06/29 06:28:01;;;;;;;3.55;3.25;;;26.30;58.10;;;;;;5014637;28;20052;-59
2021/06/29 06:30:27;;;;;;;4.18;3.78;;;26.30;58.00;;;;;;5018409;28;21549;-57
2021/06/29 06:32:54;;;;;;;3.88;3.58;;;26.30;58.10;;;;;;5015674;28;20038;-59
2021/06/29 06:35:20;;;;;;;4.22;2.85;;;26.30;58.00;;;;;;5033496;28;20040;-57
2021/06/29 06:37:46;;;;;;;3.33;3.00;;;26.30;58.00;;;;;;5033368;28;20429;-59
2021/06/29 06:40:12;;;;;;;3.83;3.53;;;26.30;58.60;;;;;;5018520;28;20430;-59
2021/06/29 06:42:38;;;;;;;3.85;3.45;;;26.30;57.90;;;;;;5024431;28;20144;-60
2021/06/29 06:45:07;;;;;;;4.70;4.30;;;26.30;57.90;;;;;;5024203;28;20456;-56
2021/06/29 06:47:32;;;;;;;4.50;4.10;;;26.30;58.00;;;;;;5026405;28;20029;-59
2021/06/29 06:49:58;;;;;;;4.05;3.60;;;26.30;58.00;;;;;;5019601;28;20034;-62
2021/06/29 06:52:24;;;;;;;3.90;3.60;;;26.30;58.00;;;;;;5023911;28;20028;-61
2021/06/29 06:54:50;;;;;;;4.85;3.35;;;26.40;58.00;;;;;;5017924;28;20025;-59
2021/06/29 06:57:16;;;;;;;4.07;3.45;;;26.40;57.90;;;;;;5024804;28;20022;-59
2021/06/29 06:59:41;;;;;;;4.75;4.00;;;26.40;57.80;;;;;;5023937;28;20034;-60
2021/06/29 07:02:08;;;;;;;4.00;3.70;;;26.40;57.70;;;;;;5018711;28;20026;-61
2021/06/29 07:04:33;;;;;;;4.30;3.90;;;26.50;57.70;;;;;;5020285;28;20038;-58
2021/06/29 07:06:59;;;;;;;3.45;3.15;;;26.50;57.60;;;;;;5017906;28;20369;-57
2021/06/29 07:09:25;;;;;;;4.15;3.78;;;26.50;57.50;;;;;;5030545;28;20058;-59
2021/06/29 07:11:51;;;;;;;4.20;3.80;;;26.60;57.50;;;;;;5033706;28;20080;-61
2021/06/29 07:14:18;;;;;;;4.20;3.80;;;26.60;57.40;;;;;;5029513;28;20989;-59
2021/06/29 07:16:44;;;;;;;4.10;3.70;;;26.60;57.90;;;;;;5024358;28;20041;-58
2021/06/29 07:19:09;;;;;;;3.65;3.35;;;26.60;57.20;;;;;;5032159;28;20352;-57
2021/06/29 07:21:36;;;;;;;3.42;3.13;;;26.70;57.30;;;;;;5037531;28;20021;-61
2021/06/29 07:24:03;;;;;;;4.38;3.97;;;26.70;57.30;;;;;;5035622;28;20104;-56
2021/06/29 07:26:29;;;;;;;3.90;3.60;;;26.70;57.20;;;;;;5018469;28;20117;-63
2021/06/29 07:28:55;;;;;;;4.28;3.88;;;26.70;57.20;;;;;;5026049;28;20627;-61
2021/06/29 07:31:21;;;;;;;4.47;3.80;;;26.80;57.20;;;;;;5022748;28;20121;-62
2021/06/29 07:33:48;;;;;;;6.38;4.10;;;26.80;57.10;;;;;;5025534;28;20034;-62
2021/06/29 07:36:16;;;;;;;4.68;4.28;;;26.80;57.10;;;;;;5034853;28;20449;-62
2021/06/29 07:38:45;;;;;;;3.97;3.50;;;26.80;56.90;;;;;;5021726;28;20029;-62
2021/06/29 07:41:13;;;;;;;4.43;4.03;;;26.90;56.90;;;;;;5006674;28;20084;-63
2021/06/29 07:43:39;;;;;;;5.00;4.60;;;26.90;56.80;;;;;;5021041;28;20034;-65
2021/06/29 07:46:05;;;;;;;4.28;3.88;;;26.90;56.80;;;;;;5023732;28;20041;-62
2021/06/29 07:48:31;;;;;;;4.15;3.75;;;26.90;56.70;;;;;;5019774;28;20045;-65
2021/06/29 07:50:57;;;;;;;4.90;4.40;;;26.90;56.60;;;;;;5027540;28;20040;-66
2021/06/29 07:53:23;;;;;;;4.25;3.90;;;27.00;56.60;;;;;;5020101;28;20037;-68
2021/06/29 07:55:49;;;;;;;5.05;4.35;;;27.00;56.50;;;;;;5024084;28;20129;-67
2021/06/29 07:58:17;;;;;;;4.72;4.22;;;27.00;56.50;;;;;;5025417;28;20407;-63
2021/06/29 08:00:43;;;;;;;5.22;4.32;;;27.10;56.50;;;;;;5015603;28;20057;-63
2021/06/29 08:03:09;;;;;;;4.78;4.38;;;27.10;56.40;;;;;;5020208;28;20342;-65
2021/06/29 08:05:35;;;;;;;4.72;4.32;;;27.10;56.40;;;;;;5029935;28;20025;-66
2021/06/29 08:08:01;;;;;;;4.35;3.75;;;27.10;56.30;;;;;;5023573;28;20026;-66
2021/06/29 08:10:27;;;;;;;4.60;4.20;;;27.10;56.30;;;;;;5031538;28;20433;-64
2021/06/29 08:12:53;;;;;;;4.30;3.90;;;27.10;56.30;;;;;;5018041;28;20049;-63
2021/06/29 08:15:20;;;;;;;4.75;4.20;;;27.10;56.20;;;;;;5025207;28;20441;-68
2021/06/29 08:17:47;;;;;;;4.40;4.00;;;27.10;56.20;;;;;;5023345;28;20054;-66
2021/06/29 08:20:14;;;;;;;3.85;3.55;;;27.10;56.20;;;;;;5025889;28;20036;-67
2021/06/29 08:22:40;;;;;;;4.57;4.13;;;27.10;56.20;;;;;;5016326;28;20043;-66
2021/06/29 08:25:07;;;;;;;4.03;3.47;;;27.10;56.20;;;;;;5020130;28;20037;-64
2021/06/29 08:27:35;;;;;;;3.63;3.33;;;27.10;56.10;;;;;;5017109;28;20057;-67
2021/06/29 08:30:01;;;;;;;3.75;3.42;;;27.10;56.10;;;;;;5033680;28;20034;-67
2021/06/29 08:32:27;;;;;;;4.25;3.85;;;27.10;56.10;;;;;;5027610;28;20037;-69
2021/06/29 08:34:54;;;;;;;4.18;3.78;;;27.10;56.10;;;;;;5035909;28;20048;-64
2021/06/29 08:37:21;;;;;;;4.20;3.80;;;27.20;56.10;;;;;;5029789;28;20038;-64
2021/06/29 08:39:48;;;;;;;4.35;3.95;;;27.20;56.00;;;;;;5016406;28;20100;-64
2021/06/29 08:42:18;;;;;;;3.83;3.53;;;27.20;56.00;;;;;;5027809;28;20409;-64
2021/06/29 08:44:44;;;;;;;5.43;3.65;;;27.20;55.90;;;;;;5016003;28;20034;-68
2021/06/29 08:47:10;;;;;;;3.92;3.63;;;27.30;56.50;;;;;;5010223;28;20026;-64
2021/06/29 08:49:37;;;;;;;3.92;3.53;;;27.30;55.80;;;;;;5015467;28;20436;-64
2021/06/29 08:52:05;;;;;;;3.80;3.50;;;27.30;55.80;;;;;;5020258;28;20033;-63
2021/06/29 08:54:31;;;;;;;3.85;3.55;;;27.30;55.70;;;;;;5014898;28;20133;-65
2021/06/29 08:56:58;;;;;;;5.35;3.58;;;27.30;55.70;;;;;;5016623;28;20029;-63
2021/06/29 08:59:24;;;;;;;3.88;3.30;;;27.30;55.60;;;;;;5021114;28;20029;-64
2021/06/29 09:01:50;;;;;;;3.42;3.13;;;27.30;55.60;;;;;;5022386;28;20038;-65
2021/06/29 09:04:55;;;;;;;3.80;3.50;;;27.30;55.50;;;;;;5024029;28;20044;-64
2021/06/29 09:07:31;;;;;;;3.80;3.50;;;27.30;55.40;;;;;;5027013;28;20026;-67
2021/06/29 09:10:01;;;;;;;3.90;3.50;;;27.30;55.40;;;;;;5015714;28;20030;-64
2021/06/29 09:12:51;;;;;;;4.57;3.70;;;27.30;55.40;;;;;;4995614;28;20042;-65
2021/06/29 09:15:36;;;;;;;4.15;3.75;;;27.30;55.20;;;;;;4996201;28;20038;-65
2021/06/29 09:18:05;;;;;;;4.10;3.70;;;27.30;55.30;;;;;;4995876;28;20030;-63
2021/06/29 09:20:35;;;;;;;4.43;3.78;;;27.30;55.20;;;;;;4995994;28;20038;-65
2021/06/29 09:23:19;;;;;;;3.95;3.50;;;27.30;55.20;;;;;;5017286;28;20025;-65
2021/06/29 09:26:06;;;;;;;4.22;3.83;;;27.30;55.10;;;;;;5034182;28;20037;-67
2021/06/29 09:28:38;;;;;;;4.13;3.75;;;27.30;55.20;;;;;;5034275;28;20056;-65
2021/06/29 09:31:04;;;;;;;4.30;3.90;;;27.30;55.10;;;;;;5035167;28;20029;-65
2021/06/29 09:33:41;;;;;;;3.78;3.47;;;27.30;55.10;;;;;;5034697;28;20056;-65
2021/06/29 09:36:18;;;;;;;4.35;3.95;;;27.30;55.00;;;;;;5034949;28;20033;-65
2021/06/29 09:38:46;;;;;;;3.97;3.65;;;27.30;55.00;;;;;;5031164;28;20029;-63
2021/06/29 09:41:17;;;;;;;4.40;4.00;;;27.30;55.00;;;;;;5022667;28;20044;-64
2021/06/29 09:43:54;;;;;;;4.40;4.00;;;27.30;55.00;;;;;;5031268;28;20021;-64
2021/06/29 09:46:23;;;;;;;4.78;4.18;;;27.30;55.10;;;;;;5018044;28;20507;-63
2021/06/29 09:48:56;;;;;;;6.47;4.47;;;27.30;55.10;;;;;;5014753;28;20030;-61
2021/06/29 09:51:28;;;;;;;4.07;3.67;;;27.30;55.20;;;;;;5014909;28;20037;-61
2021/06/29 09:53:56;;;;;;;4.13;3.72;;;27.30;55.20;;;;;;5020950;28;20045;-63
2021/06/29 09:56:30;;;;;;;4.35;3.95;;;27.30;55.30;;;;;;5030101;28;20055;-63
2021/06/29 09:58:59;;;;;;;4.15;3.45;;;27.30;55.30;;;;;;5025808;28;20360;-62
2021/06/29 10:01:28;;;;;;;4.20;3.80;;;27.30;55.30;;;;;;5028634;28;20052;-63
2021/06/29 10:03:54;;;;;;;4.60;4.20;;;27.30;55.20;;;;;;5016778;28;20037;-63
2021/06/29 10:06:25;;;;;;;4.35;3.95;;;27.30;55.20;;;;;;5015356;28;20030;-62
2021/06/29 10:08:53;;;;;;;4.32;3.88;;;27.30;55.10;;;;;;5008838;28;20041;-63
2021/06/29 10:11:32;;;;;;;5.10;4.25;;;27.30;55.10;;;;;;5028029;28;20037;-64
2021/06/29 10:14:03;;;;;;;4.43;3.90;;;27.30;55.10;;;;;;5033086;28;20045;-63
2021/06/29 10:16:34;;;;;;;4.40;4.00;;;27.30;55.10;;;;;;5014562;28;20419;-64
2021/06/29 10:19:14;;;;;;;4.47;4.07;;;27.40;55.20;;;;;;5023630;28;20029;-64
2021/06/29 10:21:46;;;;;;;4.88;4.38;;;27.40;55.20;;;;;;5026712;28;20029;-62
2021/06/29 10:24:34;;;;;;;4.18;3.78;;;27.30;55.10;;;;;;5015244;28;20030;-63
2021/06/29 10:27:05;;;;;;;3.85;3.47;;;27.40;55.20;;;;;;5015043;28;20389;-58
2021/06/29 10:29:32;;;;;;;3.55;3.25;;;27.40;55.80;;;;;;5014389;28;20542;-58
2021/06/29 10:32:06;;;;;;;4.18;3.60;;;27.30;55.00;;;;;;5014058;28;20365;-62
2021/06/29 10:34:36;;;;;;;5.88;3.40;;;27.30;54.90;;;;;;5019634;28;20037;-61
2021/06/29 10:37:04;;;;;;;3.78;3.42;;;27.40;55.00;;;;;;5014868;28;20120;-59
2021/06/29 10:39:31;;;;;;;3.70;3.40;;;27.40;54.90;;;;;;5030172;28;20187;-62
2021/06/29 10:42:06;;;;;;;3.50;3.20;;;27.40;54.90;;;;;;5030212;28;20025;-61
2021/06/29 10:44:41;;;;;;;3.90;3.60;;;27.40;54.80;;;;;;5019236;28;20504;-60
2021/06/29 10:47:29;;;;;;;5.03;2.95;;;27.50;54.80;;;;;;5019449;28;20469;-61
2021/06/29 10:50:00;;;;;;;3.50;3.20;;;27.50;54.80;;;;;;5026398;28;20038;-62
2021/06/29 10:52:26;;;;;;;4.35;3.55;;;27.50;54.90;;;;;;5023132;28;20095;-60
2021/06/29 10:54:55;;;;;;;3.70;3.40;;;27.50;54.80;;;;;;5030227;28;20365;-61
2021/06/29 10:57:51;;;;;;;3.67;3.03;;;27.60;54.80;;;;;;5014909;28;20064;-60
2021/06/29 11:00:20;;;;;;;3.70;3.40;;;27.60;54.70;;;;;;5029294;28;20041;-60
2021/06/29 11:03:08;;;;;;;3.33;3.03;;;27.60;54.80;;;;;;5028749;28;20041;-57
2021/06/29 11:05:39;;;;;;;3.63;3.33;;;27.60;54.70;;;;;;5012506;28;20456;-60
2021/06/29 11:08:13;;;;;;;5.97;3.78;;;27.60;54.70;;;;;;5016350;28;20030;-55
2021/06/29 11:10:49;;;;;;;4.05;3.65;;;27.60;54.70;;;;;;5024804;28;20033;-61
2021/06/29 11:13:18;;;;;;;3.92;3.53;;;27.60;54.70;;;;;;5022864;28;20037;-57
2021/06/29 11:15:57;;;;;;;3.80;3.50;;;27.60;54.70;;;;;;5026115;28;20087;-59
2021/06/29 11:18:34;;;;;;;3.67;3.38;;;27.70;54.70;;;;;;5025396;28;20052;-59
2021/06/29 11:21:05;;;;;;;3.92;3.53;;;27.70;54.70;;;;;;5022186;28;20033;-57
2021/06/29 11:23:34;;;;;;;3.42;3.13;;;27.70;54.70;;;;;;5021306;28;20492;-54
2021/06/29 11:26:12;;;;;;;3.97;3.67;;;27.70;54.70;;;;;;5014495;28;20381;-56
2021/06/29 11:28:42;;;;;;;4.60;3.58;;;27.80;54.70;;;;;;5017795;28;20108;-59
2021/06/29 11:31:23;;;;;;;3.88;3.58;;;27.80;54.70;;;;;;5022812;28;20113;-60
2021/06/29 11:33:53;;;;;;;4.47;3.97;;;27.80;54.60;;;;;;5017948;28;20524;-57
2021/06/29 11:36:37;;;;;;;4.32;3.42;;;27.80;54.50;;;;;;5024109;28;20117;-59
2021/06/29 11:39:15;;;;;;;3.80;3.40;;;27.80;54.50;;;;;;5019546;28;20746;-54
2021/06/29 11:41:50;;;;;;;3.60;3.30;;;27.80;54.50;;;;;;5018362;28;20116;-59
2021/06/29 11:44:37;;;;;;;3.58;3.28;;;27.80;54.50;;;;;;5015327;28;20037;-61
2021/06/29 11:47:07;;;;;;;4.50;3.05;;;27.90;54.50;;;;;;5025671;28;20048;-61
2021/06/29 11:49:59;;;;;;;3.75;3.33;;;27.90;54.50;;;;;;5022346;28;20349;-60
2021/06/29 11:52:43;;;;;;;3.63;2.97;;;27.90;54.30;;;;;;5018817;28;20052;-60
2021/06/29 11:55:29;;;;;;;3.25;2.97;;;27.90;54.30;;;;;;5024441;28;20103;-60
2021/06/29 11:58:14;;;;;;;3.30;2.97;;;27.90;54.30;;;;;;5016341;28;20096;-59
2021/06/29 12:00:41;;;;;;;3.00;2.78;;;27.90;54.30;;;;;;5020867;28;20034;-57
2021/06/29 12:03:13;;;;;;;3.28;2.97;;;28.00;54.20;;;;;;5024403;28;20461;-57
2021/06/29 12:05:40;;;;;;;3.33;3.03;;;28.00;54.10;;;;;;5029075;28;20075;-59
2021/06/29 12:08:10;;;;;;;3.63;3.30;;;28.00;54.00;;;;;;5022457;28;20033;-62
2021/06/29 12:10:41;;;;;;;3.13;2.78;;;28.00;53.90;;;;;;5019598;28;20029;-60
2021/06/29 12:13:13;;;;;;;3.20;2.90;;;28.00;53.80;;;;;;5018245;28;20034;-61
2021/06/29 12:15:51;;;;;;;4.72;2.88;;;28.00;53.80;;;;;;5037200;28;20373;-57
2021/06/29 12:18:28;;;;;;;3.35;3.00;;;28.00;53.70;;;;;;5022384;28;20124;-59
2021/06/29 12:20:57;;;;;;;3.83;2.53;;;28.10;53.80;;;;;;5018397;28;20057;-60
2021/06/29 12:23:27;;;;;;;3.00;2.72;;;28.00;53.70;;;;;;5022143;28;20341;-61
2021/06/29 12:25:56;;;;;;;3.58;2.90;;;28.10;53.70;;;;;;5017966;28;20069;-59
2021/06/29 12:28:29;;;;;;;3.38;2.90;;;28.10;53.60;;;;;;5019702;28;20034;-62
2021/06/29 12:30:57;;;;;;;3.13;2.70;;;28.10;53.50;;;;;;5014972;28;20037;-61
2021/06/29 12:33:29;;;;;;;3.00;2.70;;;28.10;53.40;;;;;;5022277;28;20368;-60
2021/06/29 12:36:22;;;;;;;2.80;2.60;;;28.20;53.40;;;;;;5021138;28;20056;-59
2021/06/29 12:38:58;;;;;;;2.28;2.08;;;28.20;53.20;;;;;;5018241;28;20037;-58
2021/06/29 12:41:26;;;;;;;3.30;2.33;;;28.20;53.20;;;;;;5018896;28;20474;-56
2021/06/29 12:43:58;;;;;;;3.70;2.15;;;28.20;53.20;;;;;;5020260;28;20117;-62
2021/06/29 12:46:27;;;;;;;3.88;2.00;;;28.20;53.10;;;;;;5015284;28;20452;-58
2021/06/29 12:49:20;;;;;;;3.05;2.63;;;28.30;53.00;;;;;;5020814;28;20079;-61
2021/06/29 12:51:55;;;;;;;3.50;2.50;;;28.30;52.80;;;;;;5025049;28;20041;-60
2021/06/29 12:54:23;;;;;;;2.38;2.17;;;28.10;52.60;;;;;;5018953;28;20049;-58
2021/06/29 12:56:55;;;;;;;2.97;2.40;;;27.90;52.60;;;;;;5017705;28;20022;-58
2021/06/29 12:59:28;;;;;;;3.85;2.72;;;27.80;52.60;;;;;;5017107;28;20026;-59
2021/06/29 13:01:59;;;;;;;3.17;2.70;;;27.60;52.30;;;;;;5018412;28;20040;-57
2021/06/29 13:04:27;;;;;;;2.88;2.67;;;27.40;52.30;;;;;;5016450;28;20109;-54